createdAt,value
2017-06-17T00:00:50.066Z,4.14
2017-06-17T00:03:18.356Z,4.20
2017-06-17T00:05:45.853Z,3.74
2017-06-17T00:08:13.390Z,3.92
2017-06-17T00:10:40.897Z,4.80
2017-06-17T00:13:09.159Z,4.42
2017-06-17T00:15:37.445Z,3.90
2017-06-17T00:18:04.950Z,4.44
2017-06-17T00:20:32.464Z,5.24
2017-06-17T00:23:00.728Z,4.64
2017-06-17T00:25:28.256Z,4.54
2017-06-17T00:27:56.523Z,4.38
2017-06-17T00:30:24.021Z,4.30
2017-06-17T00:32:52.307Z,4.56
2017-06-17T00:35:20.569Z,4.36
2017-06-17T00:37:48.089Z,4.22
2017-06-17T00:40:15.585Z,4.62
2017-06-17T00:42:43.878Z,4.22
2017-06-17T00:45:11.375Z,4.00
2017-06-17T00:47:38.896Z,4.20
2017-06-17T00:50:07.177Z,4.00
2017-06-17T00:52:35.442Z,4.20
2017-06-17T00:55:03.734Z,3.98
2017-06-17T00:57:31.993Z,4.36
2017-06-17T01:00:00.296Z,4.06
2017-06-17T01:02:28.550Z,4.34
2017-06-17T01:04:56.070Z,4.36
2017-06-17T01:07:23.592Z,5.12
2017-06-17T01:09:51.866Z,5.10
2017-06-17T01:12:20.229Z,4.20
2017-06-17T01:14:47.735Z,4.80
2017-06-17T01:17:16.001Z,4.62
2017-06-17T01:19:44.285Z,3.98
2017-06-17T01:22:12.546Z,4.62
2017-06-17T01:24:40.073Z,4.30
2017-06-17T01:27:07.584Z,3.98
2017-06-17T01:29:35.889Z,4.50
2017-06-17T01:32:04.159Z,5.10
2017-06-17T01:34:31.657Z,3.84
2017-06-17T01:36:59.944Z,4.42
2017-06-17T01:39:27.453Z,4.42
2017-06-17T01:41:55.748Z,5.26
2017-06-17T01:44:24.016Z,4.40
2017-06-17T01:46:51.548Z,4.66
2017-06-17T01:49:19.045Z,5.30
2017-06-17T01:51:47.360Z,4.98
2017-06-17T01:54:14.874Z,4.60
2017-06-17T01:56:42.383Z,4.58
2017-06-17T01:59:09.918Z,4.90
2017-06-17T02:01:38.186Z,4.94
2017-06-17T02:04:06.501Z,4.30
2017-06-17T02:06:34.032Z,4.32
2017-06-17T02:09:01.533Z,5.18
2017-06-17T02:11:29.829Z,5.04
2017-06-17T02:13:58.107Z,4.72
2017-06-17T02:16:26.412Z,6.26
2017-06-17T02:18:54.685Z,4.52
2017-06-17T02:21:28.536Z,5.54
2017-06-17T02:23:56.046Z,5.12
2017-06-17T02:26:24.342Z,4.88
2017-06-17T02:28:52.647Z,4.52
2017-06-17T02:31:20.923Z,5.00
2017-06-17T02:33:48.419Z,5.12
2017-06-17T02:36:15.954Z,4.86
2017-06-17T02:38:44.237Z,6.38
2017-06-17T02:41:12.546Z,5.24
2017-06-17T02:43:40.080Z,5.40
2017-06-17T02:46:07.617Z,4.78
2017-06-17T02:48:35.889Z,5.54
2017-06-17T02:51:04.178Z,5.22
2017-06-17T02:53:31.688Z,4.76
2017-06-17T02:55:59.983Z,4.36
2017-06-17T02:58:28.251Z,4.60
2017-06-17T03:00:55.788Z,5.28
2017-06-17T03:03:24.050Z,4.82
2017-06-17T03:05:52.324Z,4.84
2017-06-17T03:08:20.621Z,5.42
2017-06-17T03:10:48.136Z,5.70
2017-06-17T03:13:16.444Z,4.96
2017-06-17T03:15:43.950Z,5.12
2017-06-17T03:18:11.456Z,6.02
2017-06-17T03:20:38.993Z,5.72
2017-06-17T03:23:07.306Z,5.22
2017-06-17T03:25:35.573Z,5.54
2017-06-17T03:28:03.873Z,5.06
2017-06-17T03:30:31.375Z,5.30
2017-06-17T03:32:59.686Z,5.38
2017-06-17T03:35:27.228Z,5.58
2017-06-17T03:37:55.485Z,5.36
2017-06-17T03:40:23.032Z,5.94
2017-06-17T03:42:51.302Z,5.48
2017-06-17T03:45:18.800Z,6.10
2017-06-17T03:47:46.335Z,6.60
2017-06-17T03:50:13.877Z,5.46
2017-06-17T03:52:42.180Z,5.44
2017-06-17T03:55:09.721Z,6.36
2017-06-17T03:57:37.249Z,5.76
2017-06-17T04:00:06.484Z,6.14
2017-06-17T04:02:34.796Z,7.54
2017-06-17T04:05:02.297Z,6.16
2017-06-17T04:07:29.788Z,5.38
2017-06-17T04:09:58.098Z,5.76
2017-06-17T04:12:26.413Z,7.18
2017-06-17T04:14:53.913Z,6.76
2017-06-17T04:17:21.414Z,5.82
2017-06-17T04:19:48.940Z,5.52
2017-06-17T04:22:17.216Z,7.56
2017-06-17T04:24:45.547Z,5.76
2017-06-17T04:27:13.044Z,6.68
2017-06-17T04:29:40.552Z,6.04
2017-06-17T04:32:08.857Z,6.06
2017-06-17T04:34:36.357Z,6.04
2017-06-17T04:37:04.643Z,6.80
2017-06-17T04:39:32.135Z,6.62
2017-06-17T04:42:00.444Z,5.90
2017-06-17T04:44:28.717Z,6.24
2017-06-17T04:46:56.221Z,5.48
2017-06-17T04:49:24.517Z,6.94
2017-06-17T04:51:52.788Z,6.82
2017-06-17T04:54:21.119Z,7.06
2017-06-17T04:56:49.389Z,5.52
2017-06-17T04:59:16.888Z,6.00
2017-06-17T05:01:45.186Z,6.30
2017-06-17T05:04:13.460Z,6.10
2017-06-17T05:06:40.999Z,7.90
2017-06-17T05:09:09.269Z,6.80
2017-06-17T05:11:37.572Z,6.76
2017-06-17T05:14:05.833Z,5.10
2017-06-17T05:16:33.372Z,7.30
2017-06-17T05:19:00.880Z,6.36
2017-06-17T05:21:29.188Z,7.68
2017-06-17T05:23:56.689Z,6.76
2017-06-17T05:26:24.195Z,6.78
2017-06-17T05:28:51.741Z,7.92
2017-06-17T05:31:20.052Z,6.44
2017-06-17T05:33:47.556Z,6.34
2017-06-17T05:36:15.855Z,7.06
2017-06-17T05:38:44.123Z,6.58
2017-06-17T05:41:12.432Z,6.62
2017-06-17T05:43:40.704Z,6.90
2017-06-17T05:46:08.205Z,8.30
2017-06-17T05:48:35.744Z,7.44
2017-06-17T05:51:04.009Z,6.10
2017-06-17T05:53:31.541Z,7.86
2017-06-17T05:55:59.797Z,6.68
2017-06-17T05:58:28.103Z,6.56
2017-06-17T06:00:56.368Z,6.14
2017-06-17T06:03:24.665Z,7.22
2017-06-17T06:05:52.928Z,7.48
2017-06-17T06:08:21.231Z,7.28
2017-06-17T06:10:49.493Z,6.88
2017-06-17T06:13:17.797Z,7.98
2017-06-17T06:15:45.335Z,7.02
2017-06-17T06:18:12.833Z,8.34
2017-06-17T06:20:41.173Z,6.74
2017-06-17T06:23:09.432Z,8.12
2017-06-17T06:25:37.731Z,6.72
2017-06-17T06:28:05.233Z,7.26
2017-06-17T06:30:33.526Z,6.56
2017-06-17T06:33:01.785Z,6.36
2017-06-17T06:35:29.321Z,6.64
2017-06-17T06:37:57.584Z,9.16
2017-06-17T06:40:25.123Z,6.24
2017-06-17T06:42:53.436Z,6.24
2017-06-17T06:45:20.966Z,6.16
2017-06-17T06:47:49.234Z,7.16
2017-06-17T06:50:17.539Z,6.86
2017-06-17T06:52:45.809Z,7.10
2017-06-17T06:55:13.305Z,6.24
2017-06-17T06:57:41.636Z,6.60
2017-06-17T07:00:09.134Z,7.82
2017-06-17T07:02:37.424Z,7.86
2017-06-17T07:05:04.925Z,7.20
2017-06-17T07:07:33.224Z,7.92
2017-06-17T07:10:01.530Z,6.22
2017-06-17T07:12:29.825Z,6.56
2017-06-17T07:14:57.356Z,7.72
2017-06-17T07:17:24.889Z,6.82
2017-06-17T07:19:52.394Z,7.20
2017-06-17T07:22:20.693Z,8.64
2017-06-17T07:24:48.498Z,6.50
2017-06-17T07:27:16.700Z,6.44
2017-06-17T07:29:44.201Z,7.56
2017-06-17T07:32:12.492Z,9.10
2017-06-17T07:34:39.988Z,8.54
2017-06-17T07:37:08.285Z,9.24
2017-06-17T07:39:35.784Z,8.92
2017-06-17T07:42:04.091Z,7.74
2017-06-17T07:44:31.584Z,7.72
2017-06-17T07:46:59.839Z,7.58
2017-06-17T07:49:27.371Z,9.06
2017-06-17T07:51:55.636Z,8.58
2017-06-17T07:54:23.937Z,8.40
2017-06-17T07:56:51.438Z,7.58
2017-06-17T07:59:19.740Z,8.62
2017-06-17T08:01:48.000Z,7.22
2017-06-17T08:04:16.301Z,9.42
2017-06-17T08:06:43.793Z,8.50
2017-06-17T08:09:12.100Z,9.20
2017-06-17T08:11:40.361Z,9.00
2017-06-17T08:14:08.628Z,9.08
2017-06-17T08:16:36.930Z,8.86
2017-06-17T08:19:05.200Z,8.82
2017-06-17T08:21:33.502Z,9.58
2017-06-17T08:24:00.996Z,8.12
2017-06-17T08:26:28.528Z,8.60
2017-06-17T08:28:56.795Z,7.94
2017-06-17T08:31:25.103Z,8.96
2017-06-17T08:33:52.600Z,8.60
2017-06-17T08:36:20.148Z,10.08
2017-06-17T08:38:48.413Z,9.10
2017-06-17T08:41:16.716Z,8.82
2017-06-17T08:43:44.981Z,9.44
2017-06-17T08:46:13.280Z,8.66
2017-06-17T08:48:41.580Z,14.02
2017-06-17T08:51:09.844Z,9.30
2017-06-17T08:53:37.372Z,9.66
2017-06-17T08:56:05.639Z,9.36
2017-06-17T08:58:33.939Z,9.68
2017-06-17T09:01:01.439Z,9.92
2017-06-17T09:03:29.750Z,9.72
2017-06-17T09:05:58.020Z,10.06
2017-06-17T09:08:26.287Z,11.48
2017-06-17T09:10:53.824Z,9.84
2017-06-17T09:13:22.104Z,10.78
2017-06-17T09:15:49.654Z,9.60
2017-06-17T09:18:17.917Z,10.02
2017-06-17T09:20:46.218Z,9.30
2017-06-17T09:23:14.487Z,12.16
2017-06-17T09:25:42.785Z,10.60
2017-06-17T09:28:11.062Z,11.66
2017-06-17T09:30:39.381Z,10.28
2017-06-17T09:33:07.652Z,10.14
2017-06-17T09:35:35.152Z,10.38
2017-06-17T09:38:03.456Z,11.04
2017-06-17T09:40:31.727Z,10.62
2017-06-17T09:43:00.040Z,12.06
2017-06-17T09:45:27.535Z,9.82
2017-06-17T09:47:55.812Z,11.62
2017-06-17T09:50:24.120Z,12.78
2017-06-17T09:52:52.385Z,9.82
2017-06-17T09:55:19.920Z,10.32
2017-06-17T09:57:48.193Z,10.70
2017-06-17T10:00:15.801Z,11.14
2017-06-17T10:02:44.088Z,11.02
2017-06-17T10:05:11.605Z,11.80
2017-06-17T10:07:39.912Z,10.34
2017-06-17T10:10:08.222Z,11.02
2017-06-17T10:12:37.336Z,12.70
2017-06-17T10:15:05.155Z,10.64
2017-06-17T10:17:32.668Z,10.42
2017-06-17T10:20:00.944Z,9.74
2017-06-17T10:22:29.250Z,10.40
2017-06-17T10:24:56.746Z,11.10
2017-06-17T10:27:24.293Z,12.23
2017-06-17T10:29:52.566Z,12.76
2017-06-17T10:32:20.877Z,11.48
2017-06-17T10:34:49.172Z,10.52
2017-06-17T10:37:16.719Z,13.56
2017-06-17T10:39:44.227Z,12.46
2017-06-17T10:42:12.505Z,11.96
2017-06-17T10:44:40.051Z,10.92
2017-06-17T10:47:07.563Z,12.46
2017-06-17T10:49:35.109Z,13.04
2017-06-17T10:52:03.392Z,12.54
2017-06-17T10:54:31.700Z,11.22
2017-06-17T10:56:59.204Z,13.56
2017-06-17T10:59:26.736Z,12.00
2017-06-17T11:01:55.002Z,12.88
2017-06-17T11:04:22.537Z,11.84
2017-06-17T11:06:50.113Z,12.22
2017-06-17T11:09:17.612Z,14.60
2017-06-17T11:11:45.908Z,12.24
2017-06-17T11:14:13.421Z,12.12
2017-06-17T11:16:40.968Z,13.16
2017-06-17T11:19:09.292Z,14.06
2017-06-17T11:21:37.579Z,14.74
2017-06-17T11:24:05.856Z,14.22
2017-06-17T11:26:34.168Z,13.54
2017-06-17T11:29:01.675Z,13.32
2017-06-17T11:31:29.984Z,14.86
2017-06-17T11:33:58.293Z,11.78
2017-06-17T11:36:25.808Z,12.70
2017-06-17T11:38:54.106Z,14.28
2017-06-17T11:41:22.389Z,14.02
2017-06-17T11:43:49.920Z,16.86
2017-06-17T11:46:18.197Z,14.96
2017-06-17T11:48:45.736Z,13.32
2017-06-17T11:51:14.050Z,13.32
2017-06-17T11:53:42.355Z,13.08
2017-06-17T11:56:09.922Z,12.28
2017-06-17T11:58:37.432Z,13.34
2017-06-17T12:01:05.728Z,13.72
2017-06-17T12:03:33.224Z,13.82
2017-06-17T12:06:01.530Z,13.26
2017-06-17T12:08:29.040Z,13.26
2017-06-17T12:10:56.593Z,13.06
2017-06-17T12:13:24.895Z,15.20
2017-06-17T12:15:53.161Z,15.68
2017-06-17T12:18:20.707Z,12.74
2017-06-17T12:20:48.284Z,14.54
2017-06-17T12:23:16.567Z,15.54
2017-06-17T12:25:44.075Z,14.26
2017-06-17T12:28:11.612Z,16.10
2017-06-17T12:30:39.113Z,15.36
2017-06-17T12:33:07.430Z,15.66
2017-06-17T12:35:34.940Z,14.80
2017-06-17T12:38:02.489Z,12.86
2017-06-17T12:40:30.762Z,14.96
2017-06-17T12:42:59.086Z,14.60
2017-06-17T12:45:27.367Z,15.06
2017-06-17T12:47:55.644Z,14.50
2017-06-17T12:50:23.185Z,14.80
2017-06-17T12:52:51.461Z,12.30
2017-06-17T12:55:19.774Z,14.16
2017-06-17T12:57:48.039Z,12.06
2017-06-17T13:00:15.544Z,12.14
2017-06-17T13:02:43.852Z,13.04
2017-06-17T13:05:11.388Z,12.18
2017-06-17T13:07:39.697Z,12.00
2017-06-17T13:10:07.201Z,12.14
2017-06-17T13:12:35.507Z,9.98
2017-06-17T13:15:03.016Z,9.82
2017-06-17T13:17:30.569Z,11.80
2017-06-17T13:19:58.076Z,11.26
2017-06-17T13:22:26.393Z,15.00
2017-06-17T13:24:54.666Z,11.20
2017-06-17T13:27:22.175Z,10.56
2017-06-17T13:29:49.743Z,10.20
2017-06-17T13:32:18.048Z,12.46
2017-06-17T13:34:46.377Z,11.12
2017-06-17T13:37:14.658Z,10.60
2017-06-17T13:39:42.170Z,11.22
2017-06-17T13:42:10.499Z,11.62
2017-06-17T13:44:38.782Z,11.58
2017-06-17T13:47:06.323Z,9.38
2017-06-17T13:49:33.866Z,9.68
2017-06-17T13:52:02.144Z,10.74
2017-06-17T13:54:30.452Z,8.72
2017-06-17T13:56:58.730Z,9.40
2017-06-17T13:59:26.272Z,10.34
2017-06-17T14:01:54.550Z,9.80
2017-06-17T14:04:22.113Z,9.48
2017-06-17T14:06:50.388Z,8.94
2017-06-17T14:09:18.649Z,8.94
2017-06-17T14:11:46.955Z,9.68
2017-06-17T14:14:15.217Z,9.26
2017-06-17T14:16:43.533Z,8.96
2017-06-17T14:19:11.792Z,9.10
2017-06-17T14:21:45.818Z,8.56
2017-06-17T14:24:14.096Z,9.70
2017-06-17T14:26:42.375Z,8.92
2017-06-17T14:29:10.673Z,9.02
2017-06-17T14:31:38.981Z,8.00
2017-06-17T14:34:07.243Z,8.66
2017-06-17T14:36:34.809Z,7.68
2017-06-17T14:39:02.317Z,8.30
2017-06-17T14:41:30.628Z,6.86
2017-06-17T14:43:58.134Z,7.42
2017-06-17T14:46:25.681Z,7.38
2017-06-17T14:48:53.189Z,8.42
2017-06-17T14:51:21.455Z,7.88
2017-06-17T14:53:49.005Z,9.08
2017-06-17T14:56:16.515Z,7.00
2017-06-17T14:58:44.820Z,9.98
2017-06-17T15:01:13.088Z,9.52
2017-06-17T15:03:41.389Z,9.28
2017-06-17T15:06:08.888Z,8.18
2017-06-17T15:08:37.191Z,8.42
2017-06-17T15:11:05.506Z,8.42
2017-06-17T15:13:33.810Z,7.30
2017-06-17T15:16:02.176Z,7.12
2017-06-17T15:18:29.682Z,7.26
2017-06-17T15:20:57.953Z,8.80
2017-06-17T15:23:26.254Z,7.96
2017-06-17T15:25:54.525Z,7.64
2017-06-17T15:28:22.066Z,8.64
2017-06-17T15:30:50.372Z,7.78
2017-06-17T15:33:18.638Z,8.88
2017-06-17T15:35:46.183Z,7.62
2017-06-17T15:38:14.487Z,8.38
2017-06-17T15:40:41.997Z,7.82
2017-06-17T15:43:10.304Z,8.30
2017-06-17T15:45:38.576Z,8.14
2017-06-17T15:48:06.121Z,8.16
2017-06-17T15:50:34.386Z,7.18
2017-06-17T15:53:02.694Z,6.70
2017-06-17T15:55:30.981Z,7.64
2017-06-17T15:57:59.297Z,7.78
2017-06-17T16:00:26.805Z,7.46
2017-06-17T16:02:55.083Z,7.26
2017-06-17T16:05:22.631Z,7.36
2017-06-17T16:07:50.157Z,6.88
2017-06-17T16:10:18.433Z,7.90
2017-06-17T16:12:46.746Z,7.60
2017-06-17T16:15:15.016Z,6.58
2017-06-17T16:17:42.552Z,7.82
2017-06-17T16:20:10.819Z,7.38
2017-06-17T16:22:39.127Z,6.52
2017-06-17T16:25:06.629Z,7.12
2017-06-17T16:27:34.179Z,6.26
2017-06-17T16:30:02.459Z,6.44
2017-06-17T16:32:30.729Z,6.14
2017-06-17T16:34:59.037Z,6.18
2017-06-17T16:37:27.304Z,6.94
2017-06-17T16:39:54.843Z,6.84
2017-06-17T16:42:23.117Z,5.96
2017-06-17T16:44:50.651Z,6.76
2017-06-17T16:47:18.921Z,5.90
2017-06-17T16:49:47.216Z,6.76
2017-06-17T16:52:15.524Z,6.40
2017-06-17T16:54:43.831Z,5.78
2017-06-17T16:57:11.331Z,5.88
2017-06-17T16:59:38.868Z,5.64
2017-06-17T17:02:07.440Z,6.82
2017-06-17T17:04:35.031Z,6.10
2017-06-17T17:07:03.346Z,6.08
2017-06-17T17:09:30.856Z,5.74
2017-06-17T17:11:59.161Z,6.62
2017-06-17T17:14:27.504Z,6.20
2017-06-17T17:16:55.012Z,6.52
2017-06-17T17:19:22.528Z,6.10
2017-06-17T17:21:50.831Z,6.86
2017-06-17T17:24:18.333Z,7.00
2017-06-17T17:26:46.639Z,8.32
2017-06-17T17:29:14.939Z,7.68
2017-06-17T17:31:43.205Z,8.28
2017-06-17T17:34:11.505Z,7.80
2017-06-17T17:36:39.000Z,6.32
2017-06-17T17:39:07.294Z,6.76
2017-06-17T17:41:35.573Z,8.50
2017-06-17T17:44:03.918Z,8.38
2017-06-17T17:46:32.190Z,8.08
2017-06-17T17:48:59.697Z,7.72
2017-06-17T17:51:28.000Z,7.98
2017-06-17T17:53:55.505Z,7.68
2017-06-17T17:56:23.038Z,7.96
2017-06-17T17:58:51.301Z,7.40
2017-06-17T18:01:19.602Z,7.30
2017-06-17T18:03:47.091Z,7.34
2017-06-17T18:06:14.641Z,8.06
2017-06-17T18:08:42.913Z,8.02
2017-06-17T18:11:11.184Z,8.72
2017-06-17T18:13:38.721Z,7.26
2017-06-17T18:16:06.216Z,6.78
2017-06-17T18:18:33.745Z,7.76
2017-06-17T18:21:02.424Z,7.68
2017-06-17T18:23:30.737Z,8.54
2017-06-17T18:25:58.242Z,8.00
2017-06-17T18:28:26.506Z,7.66
2017-06-17T18:30:54.050Z,7.30
2017-06-17T18:33:22.316Z,7.18
2017-06-17T18:35:49.869Z,7.64
2017-06-17T18:38:18.140Z,9.78
2017-06-17T18:40:45.674Z,7.46
2017-06-17T18:43:13.944Z,8.06
2017-06-17T18:45:41.487Z,8.32
2017-06-17T18:48:09.753Z,8.00
2017-06-17T18:50:37.336Z,8.76
2017-06-17T18:53:05.600Z,8.52
2017-06-17T18:55:33.877Z,7.66
2017-06-17T18:58:01.411Z,10.82
2017-06-17T19:00:29.681Z,8.40
2017-06-17T19:02:57.987Z,8.86
2017-06-17T19:05:25.485Z,7.94
2017-06-17T19:07:53.021Z,8.26
2017-06-17T19:10:20.552Z,8.18
2017-06-17T19:12:48.873Z,7.74
2017-06-17T19:15:16.398Z,8.14
2017-06-17T19:17:43.900Z,7.40
2017-06-17T19:20:11.449Z,8.90
2017-06-17T19:22:39.717Z,7.68
2017-06-17T19:25:07.260Z,7.34
2017-06-17T19:27:35.530Z,7.98
2017-06-17T19:30:03.099Z,8.00
2017-06-17T19:32:31.408Z,8.02
2017-06-17T19:34:58.924Z,7.92
2017-06-17T19:37:26.496Z,8.88
2017-06-17T19:39:54.771Z,8.40
2017-06-17T19:42:23.072Z,7.68
2017-06-17T19:44:51.378Z,8.12
2017-06-17T19:47:19.676Z,8.80
2017-06-17T19:49:47.205Z,7.34
2017-06-17T19:52:15.521Z,8.34
2017-06-17T19:54:43.024Z,7.86
2017-06-17T19:57:11.288Z,7.94
2017-06-17T19:59:38.842Z,8.82
2017-06-17T20:02:07.114Z,9.08
2017-06-17T20:04:35.422Z,8.06
2017-06-17T20:07:03.693Z,9.06
2017-06-17T20:09:32.001Z,9.08
2017-06-17T20:12:00.275Z,8.50
2017-06-17T20:14:28.587Z,7.62
2017-06-17T20:16:56.092Z,9.04
2017-06-17T20:19:24.417Z,10.06
2017-06-17T20:22:10.528Z,8.66
2017-06-17T20:24:38.078Z,8.78
2017-06-17T20:27:06.385Z,7.82
2017-06-17T20:29:33.912Z,8.20
2017-06-17T20:32:02.216Z,7.72
2017-06-17T20:34:30.481Z,7.44
2017-06-17T20:36:57.989Z,7.82
2017-06-17T20:39:25.533Z,8.80
2017-06-17T20:41:53.840Z,6.78
2017-06-17T20:44:21.372Z,9.02
2017-06-17T20:46:48.904Z,8.30
2017-06-17T20:49:16.443Z,8.60
2017-06-17T20:51:44.711Z,8.48
2017-06-17T20:54:12.212Z,7.78
2017-06-17T20:56:40.511Z,8.82
2017-06-17T20:59:08.823Z,8.16
2017-06-17T21:01:37.122Z,8.50
2017-06-17T21:04:04.665Z,8.24
2017-06-17T21:06:32.192Z,9.56
2017-06-17T21:08:59.721Z,9.32
2017-06-17T21:11:27.990Z,9.80
2017-06-17T21:13:55.536Z,9.26
2017-06-17T21:16:23.061Z,9.38
2017-06-17T21:18:50.603Z,9.84
2017-06-17T21:21:18.911Z,8.34
2017-06-17T21:23:46.421Z,8.72
2017-06-17T21:26:13.960Z,8.64
2017-06-17T21:28:41.468Z,8.56
2017-06-17T21:31:09.790Z,7.90
2017-06-17T21:33:38.054Z,8.62
2017-06-17T21:36:05.556Z,8.18
2017-06-17T21:38:33.868Z,8.72
2017-06-17T21:41:02.149Z,8.70
2017-06-17T21:43:30.444Z,8.46
2017-06-17T21:45:57.943Z,8.88
2017-06-17T21:48:25.476Z,9.26
2017-06-17T21:50:53.017Z,8.50
2017-06-17T21:53:21.319Z,8.14
2017-06-17T21:55:49.576Z,8.08
2017-06-17T21:58:17.903Z,7.70
2017-06-17T22:00:45.409Z,10.14
2017-06-17T22:03:13.686Z,9.08
2017-06-17T22:05:41.992Z,8.80
2017-06-17T22:08:09.480Z,7.44
2017-06-17T22:10:36.973Z,9.36
2017-06-17T22:13:05.269Z,8.18
2017-06-17T22:15:33.570Z,8.68
2017-06-17T22:18:01.066Z,8.22
2017-06-17T22:20:29.365Z,8.80
2017-06-17T22:22:57.627Z,9.34
2017-06-17T22:25:25.161Z,8.96
2017-06-17T22:27:52.655Z,7.84
2017-06-17T22:30:20.197Z,8.80
2017-06-17T22:32:48.492Z,8.38
2017-06-17T22:35:16.764Z,8.94
2017-06-17T22:37:44.296Z,9.84
2017-06-17T22:40:12.552Z,9.64
2017-06-17T22:42:40.861Z,9.40
2017-06-17T22:45:08.360Z,8.08
2017-06-17T22:47:36.648Z,8.16
2017-06-17T22:50:04.920Z,8.58
2017-06-17T22:52:33.229Z,9.58
2017-06-17T22:55:00.736Z,8.78
2017-06-17T22:57:28.993Z,8.62
2017-06-17T22:59:57.298Z,9.24
2017-06-17T23:02:25.573Z,10.72
2017-06-17T23:04:53.104Z,8.44
2017-06-17T23:07:20.633Z,8.92
2017-06-17T23:09:48.173Z,10.04
2017-06-17T23:12:16.444Z,10.42
2017-06-17T23:14:43.980Z,11.28
2017-06-17T23:17:11.512Z,9.02
2017-06-17T23:19:39.783Z,8.86
2017-06-17T23:22:08.088Z,9.60
2017-06-17T23:24:36.356Z,10.18
2017-06-17T23:27:04.657Z,9.84
2017-06-17T23:29:32.170Z,9.60
2017-06-17T23:32:00.483Z,10.96
2017-06-17T23:34:27.990Z,9.72
2017-06-17T23:36:56.257Z,9.54
2017-06-17T23:39:23.797Z,10.24
2017-06-17T23:41:52.070Z,10.10
2017-06-17T23:44:20.367Z,10.24
2017-06-17T23:46:47.879Z,9.96
2017-06-17T23:49:15.417Z,9.64
2017-06-17T23:51:43.712Z,9.68
2017-06-17T23:54:12.009Z,10.42
2017-06-17T23:56:40.267Z,8.82
2017-06-17T23:59:08.564Z,8.34
